createdAt,value
2018-09-12T00:01:08.026Z,101128.52
2018-09-12T00:03:36.825Z,101123.16
2018-09-12T00:06:05.780Z,101128.85
2018-09-12T00:08:34.927Z,101124.60
2018-09-12T00:11:05.572Z,101122.45
2018-09-12T00:13:34.394Z,101116.95
2018-09-12T00:16:05.245Z,101115.47
2018-09-12T00:18:34.145Z,101118.77
2018-09-12T00:23:38.061Z,101115.53
2018-09-12T00:26:07.670Z,101119.10
2018-09-12T00:28:36.529Z,101118.37
2018-09-12T00:31:05.548Z,101115.02
2018-09-12T00:33:34.851Z,101115.45
2018-09-12T00:36:04.304Z,101104.95
2018-09-12T00:38:38.080Z,101100.98
2018-09-12T00:41:06.933Z,101103.51
2018-09-12T00:43:36.053Z,101101.12
2018-09-12T00:46:06.821Z,101099.61
2018-09-12T00:48:35.661Z,101099.69
2018-09-12T00:53:44.394Z,101097.72
2018-09-12T00:56:13.244Z,101099.06
2018-09-12T00:58:42.373Z,101094.14
2018-09-12T01:01:11.202Z,101094.23
2018-09-12T01:03:40.132Z,101086.49
2018-09-12T01:06:09.258Z,101086.49
2018-09-12T01:08:48.800Z,101087.84
2018-09-12T01:11:17.648Z,101089.23
2018-09-12T01:13:50.273Z,101084.92
2018-09-12T01:16:19.801Z,101078.30
2018-09-12T01:18:48.712Z,101077.44
2018-09-12T01:21:17.537Z,101076.53
2018-09-12T01:23:49.754Z,101071.49
2018-09-12T01:26:19.476Z,101073.50
2018-09-12T01:28:48.329Z,101068.16
2018-09-12T01:31:17.173Z,101065.96
2018-09-12T01:33:46.024Z,101065.48
2018-09-12T01:36:15.145Z,101063.34
2018-09-12T01:38:44.000Z,101063.34
2018-09-12T01:41:12.840Z,101074.78
2018-09-12T01:43:42.041Z,101075.19
2018-09-12T01:46:10.961Z,101072.56
2018-09-12T01:48:39.823Z,101066.72
2018-09-12T01:51:09.012Z,101067.94
2018-09-12T01:53:37.884Z,101067.16
2018-09-12T01:56:06.794Z,101062.85
2018-09-12T01:58:35.614Z,101063.47
2018-09-12T02:01:04.503Z,101065.52
2018-09-12T02:03:33.342Z,101061.14
2018-09-12T02:06:02.969Z,101062.38
2018-09-12T02:08:31.797Z,101061.41
2018-09-12T02:11:04.347Z,101065.05
2018-09-12T02:13:33.309Z,101059.94
2018-09-12T02:16:08.725Z,101055.42
2018-09-12T02:19:39.820Z,101058.58
2018-09-12T02:22:08.718Z,101057.75
2018-09-12T02:24:37.973Z,101055.29
2018-09-12T02:27:06.864Z,101052.89
2018-09-12T02:29:41.358Z,101052.31
2018-09-12T02:32:10.181Z,101052.96
2018-09-12T02:34:40.424Z,101054.16
2018-09-12T02:37:09.553Z,101051.97
2018-09-12T02:39:38.476Z,101051.97
2018-09-12T02:42:07.317Z,101055.50
2018-09-12T02:44:36.236Z,101043.86
2018-09-12T02:49:43.273Z,101045.70
2018-09-12T02:52:12.146Z,101042.92
2018-09-12T02:54:40.995Z,101036.26
2018-09-12T02:57:09.818Z,101039.67
2018-09-12T02:59:38.666Z,101046.38
2018-09-12T03:02:07.833Z,101044.32
2018-09-12T03:04:38.843Z,101047.23
2018-09-12T03:07:07.708Z,101050.86
2018-09-12T03:09:36.929Z,101043.84
2018-09-12T03:12:09.292Z,101032.67
2018-09-12T03:14:38.159Z,101035.69
2018-09-12T03:17:06.988Z,101030.63
2018-09-12T03:19:35.839Z,101032.09
2018-09-12T03:22:06.327Z,101025.80
2018-09-12T03:24:39.100Z,101018.80
2018-09-12T03:27:08.016Z,101026.30
2018-09-12T03:29:36.854Z,101023.97
2018-09-12T03:32:05.662Z,101025.91
2018-09-12T03:34:34.448Z,101016.49
2018-09-12T03:37:04.309Z,101022.91
2018-09-12T03:39:33.546Z,101019.14
2018-09-12T03:42:05.492Z,101024.72
2018-09-12T03:44:34.316Z,101019.25
2018-09-12T03:47:03.423Z,101019.47
2018-09-12T03:49:32.315Z,101022.41
2018-09-12T03:52:01.228Z,101014.03
2018-09-12T03:54:30.665Z,101015.38
2018-09-12T03:56:59.862Z,101017.92
2018-09-12T03:59:29.982Z,101019.41
2018-09-12T04:01:58.775Z,101017.92
2018-09-12T04:04:35.866Z,101019.52
2018-09-12T04:07:04.697Z,101025.09
2018-09-12T04:09:33.509Z,101017.83
2018-09-12T04:12:04.503Z,101019.99
2018-09-12T04:14:40.496Z,101023.14
2018-09-12T04:17:09.855Z,101022.32
2018-09-12T04:19:40.555Z,101022.32
2018-09-12T04:22:09.545Z,101014.06
2018-09-12T04:24:38.432Z,101009.34
2018-09-12T04:27:07.268Z,101011.40
2018-09-12T04:29:36.122Z,101018.80
2018-09-12T04:32:06.138Z,101016.50
2018-09-12T04:34:34.960Z,101015.52
2018-09-12T04:39:50.650Z,101017.13
2018-09-12T04:42:19.532Z,101010.05
2018-09-12T04:44:48.531Z,101017.22
2018-09-12T04:47:17.466Z,101015.04
2018-09-12T04:49:46.646Z,101021.70
2018-09-12T04:52:15.518Z,101012.37
2018-09-12T04:54:44.421Z,101013.45
2018-09-12T04:57:13.577Z,101019.01
2018-09-12T04:59:42.703Z,101021.91
2018-09-12T05:02:11.514Z,101018.76
2018-09-12T05:04:40.755Z,101024.19
2018-09-12T05:07:09.593Z,101024.41
2018-09-12T05:09:38.541Z,101030.11
2018-09-12T05:12:12.758Z,101022.63
2018-09-12T05:14:41.721Z,101024.53
2018-09-12T05:17:11.834Z,101034.70
2018-09-12T05:19:40.732Z,101033.25
2018-09-12T05:22:11.971Z,101032.42
2018-09-12T05:24:40.828Z,101025.17
2018-09-12T05:27:11.480Z,101022.16
2018-09-12T05:29:40.530Z,101013.31
2018-09-12T05:32:10.023Z,101013.56
2018-09-12T05:34:39.196Z,101015.73
2018-09-12T05:37:08.007Z,101009.83
2018-09-12T05:39:36.871Z,101013.21
2018-09-12T05:42:07.143Z,101016.73
2018-09-12T05:44:43.004Z,101016.63
2018-09-12T05:47:17.571Z,101012.63
2018-09-12T05:49:46.806Z,101012.12
2018-09-12T05:52:15.785Z,101014.16
2018-09-12T05:54:49.554Z,101010.53
2018-09-12T05:57:18.521Z,101009.34
2018-09-12T05:59:47.412Z,101005.24
2018-09-12T06:02:17.051Z,101010.42
2018-09-12T06:04:45.978Z,101012.40
2018-09-12T06:07:14.945Z,101010.20
2018-09-12T06:09:43.692Z,101011.43
2018-09-12T06:12:23.159Z,101018.32
2018-09-12T06:14:52.372Z,101011.55
2018-09-12T06:17:21.253Z,101015.92
2018-09-12T06:19:50.217Z,101012.38
2018-09-12T06:22:20.099Z,101020.00
2018-09-12T06:24:54.817Z,101018.32
2018-09-12T06:27:27.704Z,101017.81
2018-09-12T06:29:56.629Z,101024.23
2018-09-12T06:32:26.303Z,101019.27
2018-09-12T06:34:55.747Z,101026.02
2018-09-12T06:37:24.804Z,101026.99
2018-09-12T06:39:53.687Z,101024.57
2018-09-12T06:42:22.570Z,101024.70
2018-09-12T06:44:51.472Z,101027.59
2018-09-12T06:47:20.883Z,101025.74
2018-09-12T06:49:49.978Z,101023.94
2018-09-12T06:52:21.221Z,101019.94
2018-09-12T06:54:54.373Z,101022.70
2018-09-12T06:57:23.375Z,101023.06
2018-09-12T06:59:52.349Z,101024.50
2018-09-12T07:02:21.626Z,101019.03
2018-09-12T07:04:50.563Z,101019.30
2018-09-12T07:07:20.773Z,101012.94
2018-09-12T07:09:50.015Z,101010.65
2018-09-12T07:12:19.003Z,101009.52
2018-09-12T07:14:48.099Z,101011.37
2018-09-12T07:17:17.466Z,101012.52
2018-09-12T07:19:51.511Z,101016.48
2018-09-12T07:22:20.442Z,101011.52
2018-09-12T07:24:49.421Z,101012.56
2018-09-12T07:27:18.376Z,101009.89
2018-09-12T07:29:50.965Z,101019.51
2018-09-12T07:32:19.841Z,101017.66
2018-09-12T07:34:50.818Z,101026.00
2018-09-12T07:37:20.196Z,101028.47
2018-09-12T07:39:52.136Z,101030.59
2018-09-12T07:42:21.105Z,101031.41
2018-09-12T07:44:50.940Z,101025.25
2018-09-12T07:47:20.108Z,101024.97
2018-09-12T07:49:49.166Z,101017.16
2018-09-12T07:52:19.480Z,101014.05
2018-09-12T07:54:48.617Z,101016.91
2018-09-12T07:57:17.474Z,101023.41
2018-09-12T08:00:18.906Z,101029.41
2018-09-12T08:02:58.567Z,101026.47
2018-09-12T08:05:43.158Z,101023.59
2018-09-12T08:08:13.776Z,101025.70
2018-09-12T08:10:44.993Z,101031.98
2018-09-12T08:13:14.460Z,101022.88
2018-09-12T08:15:43.761Z,101017.64
2018-09-12T08:18:16.914Z,101018.38
2018-09-12T08:20:45.965Z,101014.23
2018-09-12T08:23:14.771Z,101018.61
2018-09-12T08:25:44.085Z,101017.58
2018-09-12T08:30:56.528Z,101008.50
2018-09-12T08:33:26.739Z,101001.30
2018-09-12T08:35:55.760Z,100998.91
2018-09-12T08:38:26.567Z,100999.11
2018-09-12T08:40:55.449Z,101002.45
2018-09-12T08:43:34.203Z,101014.84
2018-09-12T08:46:03.763Z,101019.15
2018-09-12T08:48:32.716Z,101011.67
2018-09-12T08:51:02.032Z,101009.18
2018-09-12T08:53:30.935Z,101003.83
2018-09-12T08:55:59.769Z,101005.65
2018-09-12T08:58:28.969Z,101001.44
2018-09-12T09:00:57.797Z,101000.06
2018-09-12T09:03:26.650Z,100996.69
2018-09-12T09:05:55.821Z,100996.22
2018-09-12T09:08:28.051Z,100999.73
2018-09-12T09:10:56.953Z,101000.45
2018-09-12T09:13:25.833Z,100993.80
2018-09-12T09:15:54.704Z,100990.94
2018-09-12T09:18:25.817Z,100986.77
2018-09-12T09:20:54.673Z,100991.88
2018-09-12T09:23:23.531Z,100984.48
2018-09-12T09:25:52.376Z,100985.77
2018-09-12T09:28:23.310Z,100992.44
2018-09-12T09:30:52.530Z,100979.59
2018-09-12T09:33:21.365Z,100986.44
2018-09-12T09:35:50.291Z,100980.78
2018-09-12T09:38:19.884Z,100983.38
2018-09-12T09:40:48.749Z,100982.61
2018-09-12T09:43:17.867Z,100982.67
2018-09-12T09:45:49.172Z,100975.64
2018-09-12T09:48:18.697Z,100984.77
2018-09-12T09:50:48.120Z,100975.64
2018-09-12T09:53:17.020Z,100980.22
2018-09-12T09:55:45.875Z,100966.89
2018-09-12T09:58:15.578Z,100967.55
2018-09-12T10:00:49.458Z,100969.72
2018-09-12T10:03:23.294Z,100964.45
2018-09-12T10:05:57.547Z,100956.26
2018-09-12T10:08:30.935Z,100964.80
2018-09-12T10:11:00.308Z,100968.79
2018-09-12T10:13:29.128Z,100965.24
2018-09-12T10:15:58.063Z,100961.17
2018-09-12T10:18:27.260Z,100956.75
2018-09-12T10:20:56.131Z,100952.03
2018-09-12T10:23:35.967Z,100953.15
2018-09-12T10:26:07.365Z,100949.67
2018-09-12T10:28:36.268Z,100940.76
2018-09-12T10:31:07.430Z,100940.80
2018-09-12T10:33:58.990Z,100938.69
2018-09-12T10:36:27.863Z,100932.10
2018-09-12T10:38:57.133Z,100925.58
2018-09-12T10:41:26.684Z,100929.05
2018-09-12T10:43:55.658Z,100921.91
2018-09-12T10:46:24.853Z,100925.13
2018-09-12T10:48:53.834Z,100920.88
2018-09-12T10:51:22.839Z,100907.35
2018-09-12T10:53:52.094Z,100909.09
2018-09-12T10:56:22.116Z,100903.92
2018-09-12T10:58:51.859Z,100901.28
2018-09-12T11:01:21.034Z,100901.73
2018-09-12T11:03:49.983Z,100902.34
2018-09-12T11:06:19.317Z,100893.59
2018-09-12T11:08:48.424Z,100901.37
2018-09-12T11:11:17.396Z,100884.56
2018-09-12T11:13:46.253Z,100886.83
2018-09-12T11:16:15.693Z,100881.08
2018-09-12T11:18:44.575Z,100878.09
2018-09-12T11:21:13.494Z,100877.77
2018-09-12T11:23:42.687Z,100873.86
2018-09-12T11:26:11.606Z,100874.70
2018-09-12T11:28:40.797Z,100869.66
2018-09-12T11:31:10.167Z,100871.91
2018-09-12T11:33:39.089Z,100865.68
2018-09-12T11:38:43.620Z,100858.69
2018-09-12T11:41:16.297Z,100852.09
2018-09-12T11:43:45.126Z,100848.64
2018-09-12T11:46:14.079Z,100844.90
2018-09-12T11:48:42.934Z,100846.22
2018-09-12T11:51:12.214Z,100837.76
2018-09-12T11:53:41.088Z,100835.94
2018-09-12T11:56:09.947Z,100837.30
2018-09-12T11:58:39.125Z,100833.20
2018-09-12T12:01:11.653Z,100833.99
2018-09-12T12:03:40.480Z,100825.36
2018-09-12T12:06:09.691Z,100823.13
2018-09-12T12:08:38.610Z,100818.06
2018-09-12T12:11:07.563Z,100819.53
2018-09-12T12:13:36.727Z,100818.33
2018-09-12T12:16:06.583Z,100812.34
2018-09-12T12:18:36.280Z,100806.63
2018-09-12T12:21:05.867Z,100791.67
2018-09-12T12:23:34.710Z,100798.11
2018-09-12T12:26:05.024Z,100795.59
2018-09-12T12:28:33.937Z,100791.84
2018-09-12T12:31:04.027Z,100781.09
2018-09-12T12:33:33.190Z,100786.97
2018-09-12T12:36:03.138Z,100782.04
2018-09-12T12:38:31.997Z,100784.28
2018-09-12T12:41:00.871Z,100776.34
2018-09-12T12:43:35.047Z,100776.29
2018-09-12T12:46:17.143Z,100776.64
2018-09-12T12:48:46.570Z,100773.88
2018-09-12T12:52:19.314Z,100766.60
2018-09-12T12:54:48.992Z,100768.51
2018-09-12T12:57:18.698Z,100766.91
2018-09-12T12:59:47.897Z,100764.67
2018-09-12T13:02:16.843Z,100752.41
2018-09-12T13:04:46.789Z,100756.08
2018-09-12T13:07:15.642Z,100745.98
2018-09-12T13:09:46.027Z,100746.72
2018-09-12T13:12:14.858Z,100745.75
2018-09-12T13:14:43.840Z,100744.72
2018-09-12T13:17:14.677Z,100734.38
2018-09-12T13:19:43.591Z,100737.60
2018-09-12T13:22:13.856Z,100724.23
2018-09-12T13:24:43.171Z,100723.52
2018-09-12T13:27:12.076Z,100720.77
2018-09-12T13:29:41.248Z,100722.69
2018-09-12T13:32:10.414Z,100719.79
2018-09-12T13:34:39.389Z,100722.31
2018-09-12T13:37:08.225Z,100708.15
2018-09-12T13:39:37.622Z,100712.35
2018-09-12T13:42:06.708Z,100707.95
2018-09-12T13:44:46.407Z,100698.70
2018-09-12T13:47:15.238Z,100709.46
2018-09-12T13:49:44.096Z,100706.41
2018-09-12T13:52:13.248Z,100704.16
2018-09-12T13:54:42.135Z,100707.56
2018-09-12T13:57:11.007Z,100702.50
2018-09-12T13:59:39.849Z,100699.62
2018-09-12T14:02:08.786Z,100698.80
2018-09-12T14:04:38.139Z,100696.08
2018-09-12T14:07:11.997Z,100686.41
2018-09-12T14:09:43.829Z,100691.61
2018-09-12T14:12:12.677Z,100692.16
2018-09-12T14:14:41.663Z,100700.21
2018-09-12T14:17:11.351Z,100689.92
2018-09-12T14:19:40.444Z,100690.44
2018-09-12T14:22:10.555Z,100680.94
2018-09-12T14:24:39.877Z,100681.72
2018-09-12T14:27:08.815Z,100676.77
2018-09-12T14:29:48.713Z,100677.03
2018-09-12T14:32:18.817Z,100672.52
2018-09-12T14:34:48.888Z,100669.84
2018-09-12T14:37:17.732Z,100678.13
2018-09-12T14:39:47.064Z,100684.29
2018-09-12T14:42:16.103Z,100674.03
2018-09-12T14:44:45.267Z,100671.88
2018-09-12T14:47:14.576Z,100670.25
2018-09-12T14:49:43.461Z,100675.72
2018-09-12T14:52:12.311Z,100665.02
2018-09-12T14:54:44.657Z,100662.08
2018-09-12T14:57:13.549Z,100660.95
2018-09-12T14:59:47.418Z,100663.47
2018-09-12T15:02:17.019Z,100664.14
2018-09-12T15:04:48.755Z,100654.13
2018-09-12T15:07:17.619Z,100654.34
2018-09-12T15:09:46.775Z,100660.73
2018-09-12T15:12:18.533Z,100659.12
2018-09-12T15:14:47.417Z,100655.66
2018-09-12T15:17:16.622Z,100665.66
2018-09-12T15:19:45.469Z,100660.08
2018-09-12T15:22:14.398Z,100660.41
2018-09-12T15:24:43.701Z,100656.11
2018-09-12T15:27:12.573Z,100657.31
2018-09-12T15:29:41.498Z,100660.27
2018-09-12T15:32:14.620Z,100653.73
2018-09-12T15:34:43.564Z,100660.94
2018-09-12T15:37:12.497Z,100657.03
2018-09-12T15:39:41.823Z,100658.80
2018-09-12T15:42:10.707Z,100661.52
2018-09-12T15:44:39.859Z,100661.95
2018-09-12T15:47:08.877Z,100658.06
2018-09-12T15:49:37.928Z,100651.44
2018-09-12T15:52:10.514Z,100657.54
2018-09-12T15:54:39.686Z,100647.89
2018-09-12T15:57:08.547Z,100642.41
2018-09-12T15:59:37.397Z,100646.50
2018-09-12T16:02:06.334Z,100642.98
2018-09-12T16:04:35.454Z,100638.99
2018-09-12T16:07:04.916Z,100650.39
2018-09-12T16:09:33.888Z,100645.98
2018-09-12T16:12:04.905Z,100640.84
2018-09-12T16:14:33.777Z,100637.05
2018-09-12T16:17:05.476Z,100631.91
2018-09-12T16:19:34.654Z,100629.25
2018-09-12T16:22:04.712Z,100622.44
2018-09-12T16:24:33.608Z,100621.31
2018-09-12T16:27:02.887Z,100614.09
2018-09-12T16:32:05.904Z,100615.45
2018-09-12T16:34:35.127Z,100620.08
2018-09-12T16:37:04.947Z,100612.53
2018-09-12T16:39:33.929Z,100607.20
2018-09-12T16:42:06.962Z,100609.63
2018-09-12T16:44:35.853Z,100609.92
2018-09-12T16:47:05.111Z,100608.39
2018-09-12T16:49:33.983Z,100610.41
2018-09-12T16:52:04.529Z,100612.59
2018-09-12T16:54:33.684Z,100612.06
2018-09-12T16:57:03.526Z,100607.70
2018-09-12T16:59:32.399Z,100605.53
2018-09-12T17:02:03.007Z,100605.67
2018-09-12T17:04:31.878Z,100606.23
2018-09-12T17:07:00.912Z,100605.24
2018-09-12T17:09:29.827Z,100608.00
2018-09-12T17:12:31.944Z,100603.73
2018-09-12T17:15:00.815Z,100606.52
2018-09-12T17:17:34.636Z,100606.75
2018-09-12T17:20:04.242Z,100602.24
2018-09-12T17:22:33.392Z,100601.62
2018-09-12T17:25:02.354Z,100603.97
2018-09-12T17:27:31.394Z,100600.34
2018-09-12T17:30:00.696Z,100600.36
2018-09-12T17:32:29.838Z,100606.45
2018-09-12T17:34:58.640Z,100601.58
2018-09-12T17:37:27.736Z,100595.52
2018-09-12T17:39:56.604Z,100604.84
2018-09-12T17:42:25.585Z,100603.48
2018-09-12T17:44:54.743Z,100602.84
2018-09-12T17:47:23.718Z,100606.84
2018-09-12T17:49:52.604Z,100603.29
2018-09-12T17:52:21.746Z,100608.31
2018-09-12T17:54:50.591Z,100603.61
2018-09-12T17:57:23.182Z,100609.77
2018-09-12T17:59:52.333Z,100602.10
2018-09-12T18:02:21.459Z,100601.39
2018-09-12T18:04:50.309Z,100599.48
2018-09-12T18:07:19.365Z,100605.53
2018-09-12T18:09:48.248Z,100606.69
2018-09-12T18:12:18.332Z,100607.64
2018-09-12T18:14:47.550Z,100603.66
2018-09-12T18:17:21.200Z,100606.04
2018-09-12T18:19:50.408Z,100613.25
2018-09-12T18:22:20.774Z,100619.77
2018-09-12T18:24:50.219Z,100620.92
2018-09-12T18:27:23.295Z,100619.99
2018-09-12T18:29:53.790Z,100622.41
2018-09-12T18:32:23.826Z,100616.22
2018-09-12T18:34:52.712Z,100625.73
2018-09-12T18:37:21.871Z,100627.97
2018-09-12T18:39:50.788Z,100627.13
2018-09-12T18:42:19.636Z,100631.61
2018-09-12T18:44:50.878Z,100623.69
2018-09-12T18:47:19.796Z,100631.94
2018-09-12T18:49:48.682Z,100639.19
2018-09-12T18:52:18.062Z,100629.08
2018-09-12T18:54:46.976Z,100637.34
2018-09-12T18:57:16.452Z,100640.17
2018-09-12T18:59:45.317Z,100635.83
2018-09-12T19:02:14.149Z,100634.98
2018-09-12T19:04:43.492Z,100642.30
2018-09-12T19:07:12.730Z,100646.03
2018-09-12T19:09:41.583Z,100643.61
2018-09-12T19:12:10.742Z,100640.82
2018-09-12T19:14:39.645Z,100641.73
2018-09-12T19:17:08.703Z,100641.95
2018-09-12T19:19:37.969Z,100639.88
2018-09-12T19:22:06.887Z,100648.13
2018-09-12T19:24:35.785Z,100642.08
2018-09-12T19:27:09.834Z,100646.35
2018-09-12T19:29:45.262Z,100659.27
2018-09-12T19:32:21.267Z,100656.22
2018-09-12T19:34:50.139Z,100658.86
2018-09-12T19:37:19.019Z,100658.72
2018-09-12T19:39:47.907Z,100658.59
2018-09-12T19:42:27.839Z,100651.47
2018-09-12T19:44:56.960Z,100651.81
2018-09-12T19:47:27.366Z,100656.79
2018-09-12T19:49:56.261Z,100662.92
2018-09-12T19:52:25.376Z,100660.01
2018-09-12T19:54:59.212Z,100661.08
2018-09-12T19:57:28.513Z,100663.38
2018-09-12T19:59:57.417Z,100661.72
2018-09-12T20:02:41.727Z,100664.88
2018-09-12T20:05:10.693Z,100667.25
2018-09-12T20:08:12.708Z,100678.63
2018-09-12T20:10:43.105Z,100685.30
2018-09-12T20:13:11.993Z,100691.16
2018-09-12T20:15:41.209Z,100692.91
2018-09-12T20:18:10.191Z,100701.75
2018-09-12T20:20:39.105Z,100703.87
2018-09-12T20:23:08.446Z,100704.61
2018-09-12T20:25:38.391Z,100710.97
2018-09-12T20:28:07.249Z,100712.29
2018-09-12T20:30:36.550Z,100715.24
2018-09-12T20:33:07.219Z,100722.92
2018-09-12T20:35:36.068Z,100725.19
2018-09-12T20:38:07.725Z,100726.02
2018-09-12T20:40:42.529Z,100718.27
2018-09-12T20:43:11.369Z,100712.61
2018-09-12T20:45:40.510Z,100714.17
2018-09-12T20:48:09.590Z,100716.21
2018-09-12T20:50:38.598Z,100708.95
2018-09-12T20:53:07.781Z,100717.55
2018-09-12T20:55:36.635Z,100723.60
2018-09-12T20:58:06.411Z,100728.22
2018-09-12T21:00:35.727Z,100724.21
2018-09-12T21:03:04.603Z,100721.39
2018-09-12T21:05:39.334Z,100712.80
2018-09-12T21:08:09.567Z,100715.84
2018-09-12T21:10:38.461Z,100710.83
2018-09-12T21:13:07.375Z,100706.00
2018-09-12T21:15:36.570Z,100709.69
2018-09-12T21:18:06.830Z,100709.56
2018-09-12T21:20:35.762Z,100710.91
2018-09-12T21:23:12.420Z,100715.50
2018-09-12T21:25:41.412Z,100714.23
2018-09-12T21:28:10.299Z,100719.31
2018-09-12T21:30:44.871Z,100722.67
2018-09-12T21:33:14.658Z,100719.30
2018-09-12T21:35:44.484Z,100724.04
2018-09-12T21:38:13.628Z,100729.22
2018-09-12T21:40:42.580Z,100723.31
2018-09-12T21:43:11.844Z,100730.76
2018-09-12T21:45:43.801Z,100732.10
2018-09-12T21:48:12.621Z,100736.00
2018-09-12T21:50:46.273Z,100740.90
2018-09-12T21:53:15.573Z,100744.61
2018-09-12T21:55:47.557Z,100737.05
2018-09-12T21:58:17.212Z,100742.13
2018-09-12T22:00:50.109Z,100742.66
2018-09-12T22:03:18.936Z,100739.33
2018-09-12T22:05:47.783Z,100748.22
2018-09-12T22:08:16.966Z,100746.05
2018-09-12T22:10:45.819Z,100748.25
2018-09-12T22:13:18.297Z,100747.42
2018-09-12T22:15:47.238Z,100747.58
2018-09-12T22:18:16.248Z,100745.91
2018-09-12T22:20:55.869Z,100755.15
2018-09-12T22:23:24.667Z,100758.52
2018-09-12T22:25:53.806Z,100758.52
2018-09-12T22:28:22.687Z,100758.34
2018-09-12T22:30:51.882Z,100758.34
2018-09-12T22:33:21.121Z,100758.34
2018-09-12T22:35:51.097Z,100766.91
2018-09-12T22:38:19.920Z,100768.73
2018-09-12T22:40:49.000Z,100760.67
2018-09-12T22:43:17.791Z,100772.39
2018-09-12T22:45:46.583Z,100779.27
2018-09-12T22:48:15.842Z,100780.62
2018-09-12T22:50:44.746Z,100775.59
2018-09-12T22:53:13.565Z,100784.20
2018-09-12T22:55:42.418Z,100780.13
2018-09-12T22:58:11.240Z,100780.09
2018-09-12T23:00:40.406Z,100774.20
2018-09-12T23:05:43.166Z,100773.16
2018-09-12T23:08:12.141Z,100762.58
2018-09-12T23:10:43.075Z,100757.27
2018-09-12T23:13:12.273Z,100766.50
2018-09-12T23:15:41.128Z,100758.32
2018-09-12T23:18:09.955Z,100758.33
2018-09-12T23:20:45.502Z,100758.17
2018-09-12T23:23:14.345Z,100751.63
2018-09-12T23:25:43.214Z,100756.14
2018-09-12T23:28:12.057Z,100742.16
2018-09-12T23:30:40.926Z,100744.83
2018-09-12T23:33:10.044Z,100747.82
2018-09-12T23:35:38.934Z,100754.51
2018-09-12T23:38:13.324Z,100763.03
2018-09-12T23:40:42.498Z,100767.91
2018-09-12T23:43:16.193Z,100765.02
2018-09-12T23:45:45.029Z,100768.16
2018-09-12T23:48:14.117Z,100762.28
2018-09-12T23:50:43.097Z,100762.41
2018-09-12T23:53:11.910Z,100755.09
2018-09-12T23:55:41.009Z,100754.25
2018-09-12T23:58:09.774Z,100754.79
